sensor_id;sensor_type;location;lat;lon;timestamp;P1;durP1;ratioP1;P2;durP2;ratioP2
23866;SDS011;12114;53.404;-1.502;2023-05-09T12:59:44;9.98;;;1.98;;
23866;SDS011;12114;53.404;-1.502;2023-05-09T13:02:35;10.45;;;2.03;;
23866;SDS011;12114;53.404;-1.502;2023-05-09T13:05:21;12.15;;;2.70;;
23866;SDS011;12114;53.404;-1.502;2023-05-09T13:08:06;10.82;;;2.17;;
23866;SDS011;12114;53.404;-1.502;2023-05-09T13:10:50;9.80;;;2.20;;
23866;SDS011;12114;53.404;-1.502;2023-05-09T13:13:34;6.82;;;2.50;;
23866;SDS011;12114;53.404;-1.502;2023-05-09T13:16:18;9.25;;;2.03;;
23866;SDS011;12114;53.404;-1.502;2023-05-09T13:19:02;11.18;;;2.28;;
23866;SDS011;12114;53.404;-1.502;2023-05-09T13:21:48;10.57;;;2.50;;
23866;SDS011;12114;53.404;-1.502;2023-05-09T13:24:32;9.90;;;2.30;;
23866;SDS011;12114;53.404;-1.502;2023-05-09T13:27:16;11.73;;;2.45;;
23866;SDS011;12114;53.404;-1.502;2023-05-09T13:30:00;8.15;;;2.13;;
23866;SDS011;12114;53.404;-1.502;2023-05-09T13:32:44;8.82;;;1.90;;
23866;SDS011;12114;53.404;-1.502;2023-05-09T13:38:13;5.63;;;1.52;;
23866;SDS011;12114;53.404;-1.502;2023-05-09T13:40:58;6.00;;;1.48;;
23866;SDS011;12114;53.404;-1.502;2023-05-09T13:43:42;6.32;;;1.55;;
23866;SDS011;12114;53.404;-1.502;2023-05-09T13:46:26;3.95;;;1.40;;
23866;SDS011;12114;53.404;-1.502;2023-05-09T13:49:10;7.53;;;1.63;;
23866;SDS011;12114;53.404;-1.502;2023-05-09T13:51:55;6.72;;;1.48;;
23866;SDS011;12114;53.404;-1.502;2023-05-09T13:54:39;4.95;;;1.05;;
23866;SDS011;12114;53.404;-1.502;2023-05-09T13:57:23;6.20;;;1.55;;
23866;SDS011;12114;53.404;-1.502;2023-05-09T14:00:08;5.80;;;1.33;;
23866;SDS011;12114;53.404;-1.502;2023-05-09T14:02:53;6.35;;;1.00;;
23866;SDS011;12114;53.404;-1.502;2023-05-09T14:05:36;6.45;;;1.23;;
23866;SDS011;12114;53.404;-1.502;2023-05-09T14:08:20;6.30;;;1.58;;
23866;SDS011;12114;53.404;-1.502;2023-05-09T14:11:04;5.28;;;1.30;;
23866;SDS011;12114;53.404;-1.502;2023-05-09T14:13:50;5.00;;;1.30;;
23866;SDS011;12114;53.404;-1.502;2023-05-09T14:16:35;4.60;;;1.58;;
23866;SDS011;12114;53.404;-1.502;2023-05-09T14:19:19;8.10;;;2.05;;
23866;SDS011;12114;53.404;-1.502;2023-05-09T14:22:04;7.60;;;1.65;;
23866;SDS011;12114;53.404;-1.502;2023-05-09T14:24:48;8.57;;;1.70;;
23866;SDS011;12114;53.404;-1.502;2023-05-09T14:27:33;6.85;;;1.92;;
23866;SDS011;12114;53.404;-1.502;2023-05-09T14:30:19;8.82;;;1.73;;
23866;SDS011;12114;53.404;-1.502;2023-05-09T14:33:03;10.43;;;2.28;;
23866;SDS011;12114;53.404;-1.502;2023-05-09T14:35:48;10.57;;;1.77;;
23866;SDS011;12114;53.404;-1.502;2023-05-09T14:38:32;8.45;;;2.10;;
23866;SDS011;12114;53.404;-1.502;2023-05-09T14:41:17;9.13;;;2.20;;
23866;SDS011;12114;53.404;-1.502;2023-05-09T14:44:01;11.35;;;2.47;;
23866;SDS011;12114;53.404;-1.502;2023-05-09T14:46:44;13.60;;;2.88;;
23866;SDS011;12114;53.404;-1.502;2023-05-09T14:49:29;12.05;;;2.90;;
23866;SDS011;12114;53.404;-1.502;2023-05-09T14:52:13;7.35;;;1.83;;
23866;SDS011;12114;53.404;-1.502;2023-05-09T14:54:57;11.27;;;2.30;;
23866;SDS011;12114;53.404;-1.502;2023-05-09T14:57:42;5.13;;;1.48;;
23866;SDS011;12114;53.404;-1.502;2023-05-09T15:00:26;6.55;;;1.45;;
23866;SDS011;12114;53.404;-1.502;2023-05-09T15:03:11;6.18;;;1.67;;
23866;SDS011;12114;53.404;-1.502;2023-05-09T15:05:55;5.30;;;1.20;;
23866;SDS011;12114;53.404;-1.502;2023-05-09T15:08:41;7.63;;;1.80;;
23866;SDS011;12114;53.404;-1.502;2023-05-09T15:11:25;6.80;;;1.70;;
23866;SDS011;12114;53.404;-1.502;2023-05-09T15:14:09;4.65;;;1.20;;
23866;SDS011;12114;53.404;-1.502;2023-05-09T15:16:53;8.32;;;1.73;;
23866;SDS011;12114;53.404;-1.502;2023-05-09T15:19:38;6.38;;;1.63;;
23866;SDS011;12114;53.404;-1.502;2023-05-09T15:22:24;8.30;;;1.83;;
23866;SDS011;12114;53.404;-1.502;2023-05-09T15:25:08;7.05;;;1.90;;
23866;SDS011;12114;53.404;-1.502;2023-05-09T15:27:52;7.13;;;1.70;;
23866;SDS011;12114;53.404;-1.502;2023-05-09T15:30:36;8.88;;;1.77;;
23866;SDS011;12114;53.404;-1.502;2023-05-09T15:33:23;6.53;;;1.55;;
23866;SDS011;12114;53.404;-1.502;2023-05-09T15:36:08;6.28;;;1.58;;
23866;SDS011;12114;53.404;-1.502;2023-05-09T15:38:52;7.03;;;1.60;;
23866;SDS011;12114;53.404;-1.502;2023-05-09T15:41:36;7.90;;;1.65;;
23866;SDS011;12114;53.404;-1.502;2023-05-09T15:44:20;5.50;;;1.90;;
23866;SDS011;12114;53.404;-1.502;2023-05-09T15:47:04;6.68;;;2.50;;
23866;SDS011;12114;53.404;-1.502;2023-05-09T15:49:48;8.13;;;2.00;;
23866;SDS011;12114;53.404;-1.502;2023-05-09T15:52:32;6.70;;;1.42;;
23866;SDS011;12114;53.404;-1.502;2023-05-09T15:55:15;5.18;;;1.80;;
23866;SDS011;12114;53.404;-1.502;2023-05-09T15:57:59;8.70;;;2.63;;
23866;SDS011;12114;53.404;-1.502;2023-05-09T16:00:44;7.30;;;2.13;;
23866;SDS011;12114;53.404;-1.502;2023-05-09T16:03:28;5.60;;;2.03;;
23866;SDS011;12114;53.404;-1.502;2023-05-09T16:06:12;10.07;;;2.25;;
23866;SDS011;12114;53.404;-1.502;2023-05-09T16:08:56;6.03;;;2.70;;
23866;SDS011;12114;53.404;-1.502;2023-05-09T16:11:40;5.35;;;1.50;;
23866;SDS011;12114;53.404;-1.502;2023-05-09T16:14:25;7.28;;;2.20;;
23866;SDS011;12114;53.404;-1.502;2023-05-09T16:17:10;6.18;;;2.20;;
23866;SDS011;12114;53.404;-1.502;2023-05-09T16:19:55;8.13;;;2.03;;
23866;SDS011;12114;53.404;-1.502;2023-05-09T16:22:39;6.57;;;1.70;;
23866;SDS011;12114;53.404;-1.502;2023-05-09T16:25:23;6.32;;;2.00;;
23866;SDS011;12114;53.404;-1.502;2023-05-09T16:28:07;7.00;;;1.73;;
23866;SDS011;12114;53.404;-1.502;2023-05-09T16:30:51;7.35;;;1.98;;
23866;SDS011;12114;53.404;-1.502;2023-05-09T16:33:36;7.10;;;1.95;;
23866;SDS011;12114;53.404;-1.502;2023-05-09T16:36:20;5.90;;;1.60;;
23866;SDS011;12114;53.404;-1.502;2023-05-09T16:39:04;7.97;;;1.80;;
23866;SDS011;12114;53.404;-1.502;2023-05-09T16:41:48;7.75;;;2.08;;
23866;SDS011;12114;53.404;-1.502;2023-05-09T16:44:32;7.53;;;1.70;;
23866;SDS011;12114;53.404;-1.502;2023-05-09T16:47:16;7.78;;;2.00;;
23866;SDS011;12114;53.404;-1.502;2023-05-09T16:50:00;6.22;;;1.60;;
23866;SDS011;12114;53.404;-1.502;2023-05-09T16:52:44;6.03;;;1.88;;
23866;SDS011;12114;53.404;-1.502;2023-05-09T16:55:28;5.68;;;1.60;;
23866;SDS011;12114;53.404;-1.502;2023-05-09T16:58:12;7.57;;;1.23;;
23866;SDS011;12114;53.404;-1.502;2023-05-09T17:00:56;5.47;;;0.95;;
23866;SDS011;12114;53.404;-1.502;2023-05-09T17:06:26;2.83;;;1.00;;
23866;SDS011;12114;53.404;-1.502;2023-05-09T17:09:10;6.85;;;1.65;;
23866;SDS011;12114;53.404;-1.502;2023-05-09T17:11:55;5.65;;;1.23;;
23866;SDS011;12114;53.404;-1.502;2023-05-09T17:14:39;7.60;;;1.50;;
23866;SDS011;12114;53.404;-1.502;2023-05-09T17:17:23;7.13;;;1.90;;
23866;SDS011;12114;53.404;-1.502;2023-05-09T17:20:07;8.55;;;1.90;;
23866;SDS011;12114;53.404;-1.502;2023-05-09T17:22:56;6.10;;;1.80;;
23866;SDS011;12114;53.404;-1.502;2023-05-09T17:25:40;7.68;;;1.85;;
23866;SDS011;12114;53.404;-1.502;2023-05-09T17:28:25;9.73;;;1.87;;
23866;SDS011;12114;53.404;-1.502;2023-05-09T17:31:09;4.80;;;1.63;;
23866;SDS011;12114;53.404;-1.502;2023-05-09T17:33:54;6.30;;;1.67;;
23866;SDS011;12114;53.404;-1.502;2023-05-09T17:36:38;3.95;;;1.35;;
23866;SDS011;12114;53.404;-1.502;2023-05-09T17:39:22;7.25;;;1.88;;
23866;SDS011;12114;53.404;-1.502;2023-05-09T17:42:06;8.43;;;2.45;;
23866;SDS011;12114;53.404;-1.502;2023-05-09T17:44:51;9.48;;;2.28;;
23866;SDS011;12114;53.404;-1.502;2023-05-09T17:47:35;9.00;;;2.08;;
23866;SDS011;12114;53.404;-1.502;2023-05-09T17:50:20;7.85;;;1.90;;
23866;SDS011;12114;53.404;-1.502;2023-05-09T17:53:03;5.60;;;2.03;;
23866;SDS011;12114;53.404;-1.502;2023-05-09T17:55:51;6.15;;;2.10;;
23866;SDS011;12114;53.404;-1.502;2023-05-09T17:58:35;7.70;;;2.05;;
23866;SDS011;12114;53.404;-1.502;2023-05-09T18:01:19;5.47;;;1.58;;
23866;SDS011;12114;53.404;-1.502;2023-05-09T18:04:03;5.13;;;1.60;;
23866;SDS011;12114;53.404;-1.502;2023-05-09T18:06:50;9.43;;;2.03;;
23866;SDS011;12114;53.404;-1.502;2023-05-09T18:09:34;6.70;;;1.80;;
23866;SDS011;12114;53.404;-1.502;2023-05-09T18:12:18;5.93;;;1.70;;
23866;SDS011;12114;53.404;-1.502;2023-05-09T18:15:02;7.68;;;2.08;;
23866;SDS011;12114;53.404;-1.502;2023-05-09T18:17:46;6.10;;;1.90;;
23866;SDS011;12114;53.404;-1.502;2023-05-09T18:20:32;5.63;;;1.60;;
23866;SDS011;12114;53.404;-1.502;2023-05-09T18:23:16;9.02;;;1.90;;
23866;SDS011;12114;53.404;-1.502;2023-05-09T18:26:00;6.05;;;1.75;;
23866;SDS011;12114;53.404;-1.502;2023-05-09T18:28:44;6.38;;;1.42;;
23866;SDS011;12114;53.404;-1.502;2023-05-09T18:31:28;5.93;;;1.60;;
23866;SDS011;12114;53.404;-1.502;2023-05-09T18:34:13;7.90;;;1.85;;
23866;SDS011;12114;53.404;-1.502;2023-05-09T18:36:57;8.60;;;2.05;;
23866;SDS011;12114;53.404;-1.502;2023-05-09T18:39:42;7.85;;;2.38;;
23866;SDS011;12114;53.404;-1.502;2023-05-09T18:42:26;9.45;;;1.98;;
23866;SDS011;12114;53.404;-1.502;2023-05-09T18:45:11;10.13;;;2.58;;
23866;SDS011;12114;53.404;-1.502;2023-05-09T18:47:55;11.87;;;2.40;;
23866;SDS011;12114;53.404;-1.502;2023-05-09T18:50:39;9.55;;;3.03;;
23866;SDS011;12114;53.404;-1.502;2023-05-09T18:53:23;9.18;;;3.13;;
23866;SDS011;12114;53.404;-1.502;2023-05-09T18:56:11;13.32;;;3.72;;
23866;SDS011;12114;53.404;-1.502;2023-05-09T18:58:55;10.18;;;3.38;;
23866;SDS011;12114;53.404;-1.502;2023-05-09T19:01:39;12.40;;;3.20;;
23866;SDS011;12114;53.404;-1.502;2023-05-09T19:04:25;11.23;;;4.05;;
23866;SDS011;12114;53.404;-1.502;2023-05-09T19:07:09;12.18;;;3.30;;
23866;SDS011;12114;53.404;-1.502;2023-05-09T19:09:55;9.80;;;3.15;;
23866;SDS011;12114;53.404;-1.502;2023-05-09T19:12:39;12.55;;;3.35;;
23866;SDS011;12114;53.404;-1.502;2023-05-09T19:15:24;14.77;;;3.53;;
23866;SDS011;12114;53.404;-1.502;2023-05-09T19:18:08;11.55;;;3.03;;
23866;SDS011;12114;53.404;-1.502;2023-05-09T19:20:52;11.45;;;3.15;;
23866;SDS011;12114;53.404;-1.502;2023-05-09T19:23:36;11.45;;;3.08;;
23866;SDS011;12114;53.404;-1.502;2023-05-09T19:26:20;8.48;;;3.05;;
23866;SDS011;12114;53.404;-1.502;2023-05-09T19:29:04;12.52;;;2.67;;
23866;SDS011;12114;53.404;-1.502;2023-05-09T19:31:50;10.48;;;2.58;;
23866;SDS011;12114;53.404;-1.502;2023-05-09T19:34:34;10.10;;;2.50;;
23866;SDS011;12114;53.404;-1.502;2023-05-09T19:37:19;9.52;;;2.50;;
23866;SDS011;12114;53.404;-1.502;2023-05-09T19:40:03;8.88;;;2.42;;
23866;SDS011;12114;53.404;-1.502;2023-05-09T19:42:48;9.82;;;2.40;;
23866;SDS011;12114;53.404;-1.502;2023-05-09T19:45:32;11.65;;;2.33;;
23866;SDS011;12114;53.404;-1.502;2023-05-09T19:48:16;14.13;;;2.65;;
23866;SDS011;12114;53.404;-1.502;2023-05-09T19:51:00;7.97;;;2.17;;
23866;SDS011;12114;53.404;-1.502;2023-05-09T19:53:44;11.77;;;2.63;;
23866;SDS011;12114;53.404;-1.502;2023-05-09T19:56:29;13.82;;;3.00;;
23866;SDS011;12114;53.404;-1.502;2023-05-09T19:59:13;12.27;;;2.33;;
23866;SDS011;12114;53.404;-1.502;2023-05-09T20:01:58;10.93;;;2.90;;
23866;SDS011;12114;53.404;-1.502;2023-05-09T20:04:42;11.20;;;2.53;;
23866;SDS011;12114;53.404;-1.502;2023-05-09T20:07:31;9.48;;;2.30;;
23866;SDS011;12114;53.404;-1.502;2023-05-09T20:10:15;9.02;;;2.47;;
23866;SDS011;12114;53.404;-1.502;2023-05-09T20:12:59;7.47;;;2.00;;
23866;SDS011;12114;53.404;-1.502;2023-05-09T20:15:43;9.95;;;2.45;;
23866;SDS011;12114;53.404;-1.502;2023-05-09T20:18:27;9.40;;;2.08;;
23866;SDS011;12114;53.404;-1.502;2023-05-09T20:21:11;8.75;;;2.60;;
23866;SDS011;12114;53.404;-1.502;2023-05-09T20:23:55;9.48;;;2.22;;
23866;SDS011;12114;53.404;-1.502;2023-05-09T20:26:40;13.13;;;2.92;;
23866;SDS011;12114;53.404;-1.502;2023-05-09T20:29:24;12.75;;;2.63;;
23866;SDS011;12114;53.404;-1.502;2023-05-09T20:32:09;7.65;;;2.63;;
23866;SDS011;12114;53.404;-1.502;2023-05-09T20:34:54;8.63;;;2.53;;
23866;SDS011;12114;53.404;-1.502;2023-05-09T20:37:39;11.03;;;2.53;;
23866;SDS011;12114;53.404;-1.502;2023-05-09T20:40:23;9.77;;;2.50;;
23866;SDS011;12114;53.404;-1.502;2023-05-09T20:43:07;10.63;;;3.25;;
23866;SDS011;12114;53.404;-1.502;2023-05-09T20:45:51;13.55;;;3.30;;
23866;SDS011;12114;53.404;-1.502;2023-05-09T20:48:35;12.50;;;3.13;;
23866;SDS011;12114;53.404;-1.502;2023-05-09T20:51:19;12.40;;;3.55;;
23866;SDS011;12114;53.404;-1.502;2023-05-09T20:54:03;12.48;;;3.78;;
23866;SDS011;12114;53.404;-1.502;2023-05-09T20:56:48;14.32;;;4.13;;
23866;SDS011;12114;53.404;-1.502;2023-05-09T20:59:33;15.18;;;4.65;;
23866;SDS011;12114;53.404;-1.502;2023-05-09T21:02:17;10.75;;;4.30;;
23866;SDS011;12114;53.404;-1.502;2023-05-09T21:05:00;14.18;;;4.40;;
23866;SDS011;12114;53.404;-1.502;2023-05-09T21:07:44;10.00;;;3.08;;
23866;SDS011;12114;53.404;-1.502;2023-05-09T21:10:28;11.23;;;3.45;;
23866;SDS011;12114;53.404;-1.502;2023-05-09T21:13:12;14.55;;;3.60;;
23866;SDS011;12114;53.404;-1.502;2023-05-09T21:15:56;13.63;;;3.17;;
23866;SDS011;12114;53.404;-1.502;2023-05-09T21:18:40;12.88;;;3.05;;
23866;SDS011;12114;53.404;-1.502;2023-05-09T21:21:24;11.45;;;3.08;;
23866;SDS011;12114;53.404;-1.502;2023-05-09T21:24:08;11.95;;;3.38;;
23866;SDS011;12114;53.404;-1.502;2023-05-09T21:26:53;12.02;;;3.30;;
23866;SDS011;12114;53.404;-1.502;2023-05-09T21:29:37;8.63;;;2.80;;
23866;SDS011;12114;53.404;-1.502;2023-05-09T21:32:21;14.95;;;3.38;;
23866;SDS011;12114;53.404;-1.502;2023-05-09T21:35:06;10.38;;;3.10;;
23866;SDS011;12114;53.404;-1.502;2023-05-09T21:37:53;17.08;;;3.58;;
23866;SDS011;12114;53.404;-1.502;2023-05-09T21:40:37;9.85;;;2.72;;
23866;SDS011;12114;53.404;-1.502;2023-05-09T21:43:21;17.15;;;4.07;;
23866;SDS011;12114;53.404;-1.502;2023-05-09T21:46:05;11.75;;;3.80;;
23866;SDS011;12114;53.404;-1.502;2023-05-09T21:48:49;13.70;;;3.38;;
23866;SDS011;12114;53.404;-1.502;2023-05-09T21:51:33;10.90;;;3.58;;
23866;SDS011;12114;53.404;-1.502;2023-05-09T21:54:17;8.40;;;3.08;;
23866;SDS011;12114;53.404;-1.502;2023-05-09T21:57:01;13.35;;;3.72;;
23866;SDS011;12114;53.404;-1.502;2023-05-09T21:59:45;14.57;;;3.80;;
23866;SDS011;12114;53.404;-1.502;2023-05-09T22:02:29;14.80;;;3.60;;
23866;SDS011;12114;53.404;-1.502;2023-05-09T22:05:13;12.52;;;3.33;;
23866;SDS011;12114;53.404;-1.502;2023-05-09T22:07:57;11.35;;;3.45;;
23866;SDS011;12114;53.404;-1.502;2023-05-09T22:10:41;15.10;;;3.40;;
23866;SDS011;12114;53.404;-1.502;2023-05-09T22:13:25;14.35;;;3.97;;
23866;SDS011;12114;53.404;-1.502;2023-05-09T22:16:11;15.10;;;3.70;;
23866;SDS011;12114;53.404;-1.502;2023-05-09T22:18:55;10.10;;;3.63;;
23866;SDS011;12114;53.404;-1.502;2023-05-09T22:21:39;12.63;;;3.67;;
23866;SDS011;12114;53.404;-1.502;2023-05-09T22:24:23;14.35;;;3.63;;
23866;SDS011;12114;53.404;-1.502;2023-05-09T22:27:08;10.35;;;3.38;;
23866;SDS011;12114;53.404;-1.502;2023-05-09T22:29:52;15.70;;;4.17;;
23866;SDS011;12114;53.404;-1.502;2023-05-09T22:32:38;16.05;;;4.10;;
23866;SDS011;12114;53.404;-1.502;2023-05-09T22:35:22;12.70;;;3.80;;
23866;SDS011;12114;53.404;-1.502;2023-05-09T22:38:06;15.65;;;4.13;;
23866;SDS011;12114;53.404;-1.502;2023-05-09T22:40:50;11.27;;;3.78;;
23866;SDS011;12114;53.404;-1.502;2023-05-09T22:43:34;12.00;;;3.53;;
23866;SDS011;12114;53.404;-1.502;2023-05-09T22:46:18;12.70;;;3.90;;
23866;SDS011;12114;53.404;-1.502;2023-05-09T22:49:02;13.23;;;3.40;;
23866;SDS011;12114;53.404;-1.502;2023-05-09T22:51:46;17.25;;;3.53;;
23866;SDS011;12114;53.404;-1.502;2023-05-09T22:54:30;12.63;;;3.33;;
23866;SDS011;12114;53.404;-1.502;2023-05-09T22:57:14;8.07;;;2.83;;
23866;SDS011;12114;53.404;-1.502;2023-05-09T23:00:01;12.13;;;3.35;;
23866;SDS011;12114;53.404;-1.502;2023-05-09T23:02:46;12.50;;;3.53;;
23866;SDS011;12114;53.404;-1.502;2023-05-09T23:05:30;12.60;;;4.32;;
23866;SDS011;12114;53.404;-1.502;2023-05-09T23:08:14;13.88;;;4.82;;
23866;SDS011;12114;53.404;-1.502;2023-05-09T23:10:58;13.75;;;3.35;;
23866;SDS011;12114;53.404;-1.502;2023-05-09T23:13:42;13.90;;;3.15;;
23866;SDS011;12114;53.404;-1.502;2023-05-09T23:16:26;10.57;;;2.45;;
23866;SDS011;12114;53.404;-1.502;2023-05-09T23:19:10;10.80;;;3.10;;
23866;SDS011;12114;53.404;-1.502;2023-05-09T23:21:54;8.88;;;2.83;;
23866;SDS011;12114;53.404;-1.502;2023-05-09T23:24:41;12.02;;;2.78;;
23866;SDS011;12114;53.404;-1.502;2023-05-09T23:27:25;9.43;;;2.25;;
23866;SDS011;12114;53.404;-1.502;2023-05-09T23:30:10;8.27;;;2.78;;
23866;SDS011;12114;53.404;-1.502;2023-05-09T23:32:54;7.43;;;1.98;;
23866;SDS011;12114;53.404;-1.502;2023-05-09T23:35:38;10.93;;;2.28;;
23866;SDS011;12114;53.404;-1.502;2023-05-09T23:38:22;13.10;;;2.75;;
23866;SDS011;12114;53.404;-1.502;2023-05-09T23:41:06;11.85;;;2.40;;
23866;SDS011;12114;53.404;-1.502;2023-05-09T23:43:50;8.95;;;2.40;;
23866;SDS011;12114;53.404;-1.502;2023-05-09T23:46:34;11.52;;;2.53;;
23866;SDS011;12114;53.404;-1.502;2023-05-09T23:49:18;9.65;;;2.70;;
23866;SDS011;12114;53.404;-1.502;2023-05-09T23:52:02;13.80;;;2.33;;
23866;SDS011;12114;53.404;-1.502;2023-05-09T23:54:46;9.80;;;3.03;;
23866;SDS011;12114;53.404;-1.502;2023-05-09T23:57:30;10.00;;;2.53;;
